Time;durP1;ratioP1;P1;durP2;ratioP2;P2;SDS_P1;SDS_P2;PMS_P1;PMS_P2;Temp;Humidity;BMP_temperature;BMP_pressure;BME280_temperature;BME280_humidity;BME280_pressure;Samples;Min_cycle;Max_cycle;Signal;HPM_P1;HPM_P2
2022/09/01 00:00:46;;;;;;;3.15;1.30;;;;;;;15.79;84.21;102019.66;5070642;28;20503;-60
2022/09/01 00:03:16;;;;;;;4.50;1.45;;;;;;;15.78;84.56;102020.59;5071929;28;20495;-56
2022/09/01 00:05:48;;;;;;;5.35;1.40;;;;;;;15.68;84.86;102020.38;5072411;28;20053;-59
2022/09/01 00:08:19;;;;;;;4.60;1.50;;;;;;;15.63;85.70;102022.50;5071568;28;20368;-57
2022/09/01 00:10:48;;;;;;;2.83;1.40;;;;;;;15.70;85.63;102021.09;5071827;28;20384;-56
2022/09/01 00:13:16;;;;;;;3.67;1.65;;;;;;;15.68;85.61;102020.38;5071284;28;20098;-54
2022/09/01 00:15:45;;;;;;;3.97;1.52;;;;;;;15.57;86.01;102020.25;5071528;28;20496;-59
2022/09/01 00:18:14;;;;;;;4.57;1.30;;;;;;;15.51;86.57;102020.66;5071537;28;20099;-60
2022/09/01 00:20:43;;;;;;;4.45;1.40;;;;;;;15.54;86.45;102016.03;5071813;28;20117;-60
2022/09/01 00:23:11;;;;;;;5.05;1.58;;;;;;;15.48;86.36;102016.41;5071703;28;20044;-56
2022/09/01 00:25:39;;;;;;;3.65;1.33;;;;;;;15.55;86.05;102017.69;5071455;28;20049;-58
2022/09/01 00:28:08;;;;;;;4.32;1.60;;;;;;;15.46;86.89;102017.47;5071484;28;20048;-60
2022/09/01 00:30:36;;;;;;;3.22;1.55;;;;;;;15.50;86.48;102022.47;5071266;28;20129;-60
2022/09/01 00:33:06;;;;;;;4.15;1.70;;;;;;;15.45;86.85;102019.28;5073210;28;20055;-57
2022/09/01 00:35:35;;;;;;;4.30;1.42;;;;;;;15.44;86.83;102019.38;5075508;28;20491;-59
2022/09/01 00:38:04;;;;;;;4.47;1.70;;;;;;;15.42;87.08;102021.28;5075334;28;20044;-59
2022/09/01 00:40:32;;;;;;;4.35;1.42;;;;;;;15.45;87.03;102018.44;5075335;28;20127;-59
2022/09/01 00:43:01;;;;;;;6.15;1.50;;;;;;;15.40;87.39;102024.03;5075273;28;20505;-55
2022/09/01 00:45:29;;;;;;;5.13;1.67;;;;;;;15.25;87.65;102012.66;5075298;28;20051;-59
2022/09/01 00:47:57;;;;;;;7.43;2.25;;;;;;;15.22;88.04;102015.53;5075229;28;20055;-59
2022/09/01 00:50:27;;;;;;;4.70;1.30;;;;;;;15.22;88.35;102020.81;5075076;28;20471;-61
2022/09/01 00:52:55;;;;;;;3.83;1.50;;;;;;;15.22;88.28;102010.22;5075017;28;20040;-59
2022/09/01 00:55:30;;;;;;;3.17;1.30;;;;;;;15.09;88.88;102007.53;5074932;28;20468;-55
2022/09/01 00:58:01;;;;;;;6.88;1.70;;;;;;;15.13;88.83;102005.53;5075244;28;20131;-59
2022/09/01 01:00:32;;;;;;;6.70;1.80;;;;;;;15.09;89.07;102012.81;5075081;28;20122;-61
2022/09/01 01:03:00;;;;;;;4.63;1.55;;;;;;;15.01;90.11;102016.00;5075244;28;20033;-59
2022/09/01 01:05:33;;;;;;;2.38;1.50;;;;;;;15.03;89.86;102007.94;5074710;28;20508;-59
2022/09/01 01:08:03;;;;;;;4.50;1.75;;;;;;;15.03;90.07;102013.22;5075195;28;20049;-57
2022/09/01 01:10:34;;;;;;;4.20;1.48;;;;;;;14.90;90.76;102001.75;5075032;28;20068;-57
2022/09/01 01:13:07;;;;;;;5.95;1.60;;;;;;;14.88;91.00;102002.69;5074558;28;20128;-56
2022/09/01 01:15:36;;;;;;;3.13;1.50;;;;;;;14.87;90.86;102002.78;5074610;28;20048;-59
2022/09/01 01:18:05;;;;;;;2.90;1.60;;;;;;;14.83;91.22;102001.28;5075163;28;20041;-54
2022/09/01 01:23:30;;;;;;;4.65;1.55;;;;;;;14.86;90.59;102003.72;5074623;28;20094;-56
2022/09/01 01:26:00;;;;;;;4.20;1.60;;;;;;;14.88;90.56;101999.19;5075242;28;20068;-56
2022/09/01 01:28:31;;;;;;;3.88;1.80;;;;;;;14.82;90.96;102002.22;5075113;28;20056;-59
2022/09/01 01:31:04;;;;;;;3.75;1.67;;;;;;;14.84;90.94;101998.53;5075066;28;20143;-57
2022/09/01 01:33:39;;;;;;;4.30;1.92;;;;;;;14.83;91.23;101996.84;5074900;28;20049;-60
2022/09/01 01:36:12;;;;;;;6.60;1.80;;;;;;;14.83;90.85;101998.63;5074749;28;20115;-61
2022/09/01 01:38:41;;;;;;;4.18;1.80;;;;;;;14.85;90.34;101999.41;5075276;28;20403;-57
2022/09/01 01:41:12;;;;;;;3.63;1.65;;;;;;;14.87;90.71;102003.66;5073224;28;20084;-58
2022/09/01 01:43:43;;;;;;;4.88;1.80;;;;;;;14.88;90.35;102000.03;5073473;28;20499;-57
2022/09/01 01:46:13;;;;;;;3.22;1.50;;;;;;;14.94;89.93;102003.25;5074225;28;20040;-57
2022/09/01 01:48:43;;;;;;;4.75;1.50;;;;;;;14.91;89.91;101998.97;5074193;28;20088;-59
2022/09/01 01:51:12;;;;;;;4.03;1.98;;;;;;;14.93;89.67;102005.03;5074061;28;20388;-56
2022/09/01 01:53:40;;;;;;;4.45;2.00;;;;;;;14.97;89.40;102005.69;5073913;28;20094;-56
2022/09/01 01:56:09;;;;;;;3.10;1.65;;;;;;;14.96;89.45;102010.13;5073677;28;20048;-59
2022/09/01 01:58:40;;;;;;;2.75;1.60;;;;;;;14.93;89.24;102006.81;5074201;28;20044;-55
2022/09/01 02:01:09;;;;;;;5.32;1.85;;;;;;;14.94;89.18;102009.38;5073792;28;20427;-55
2022/09/01 02:03:38;;;;;;;4.28;1.55;;;;;;;14.99;88.91;102012.56;5074265;28;20066;-56
2022/09/01 02:06:08;;;;;;;5.57;1.58;;;;;;;15.01;88.29;102009.81;5073638;28;20048;-60
2022/09/01 02:08:38;;;;;;;2.95;1.60;;;;;;;14.97;88.36;102006.53;5106499;28;20136;-57
2022/09/01 02:11:07;;;;;;;3.95;1.95;;;;;;;15.00;88.00;101998.38;5073746;28;20415;-60
2022/09/01 02:13:35;;;;;;;4.75;1.77;;;;;;;14.94;87.98;102004.06;5072420;28;20044;-57
2022/09/01 02:16:10;;;;;;;3.67;1.60;;;;;;;14.97;87.90;102000.38;5072502;28;20053;-57
2022/09/01 02:18:43;;;;;;;4.93;1.80;;;;;;;15.04;87.05;101999.88;5073824;28;20154;-59
2022/09/01 02:21:14;;;;;;;3.85;1.70;;;;;;;15.04;87.20;101997.22;5073991;28;20442;-60
2022/09/01 02:23:59;;;;;;;3.90;1.60;;;;;;;15.01;87.02;102002.75;5073746;28;20491;-56
2022/09/01 02:26:30;;;;;;;4.20;1.88;;;;;;;15.00;86.93;102011.63;5073434;28;20045;-56
2022/09/01 02:29:03;;;;;;;2.58;1.40;;;;;;;15.01;86.75;102004.53;5073854;28;20056;-60
2022/09/01 02:31:38;;;;;;;6.70;1.98;;;;;;;15.00;86.58;102003.69;5073424;28;20048;-60
2022/09/01 02:34:09;;;;;;;4.78;1.77;;;;;;;14.98;86.51;101999.44;5073310;28;20044;-60
2022/09/01 02:36:43;;;;;;;4.30;1.70;;;;;;;14.83;87.01;102001.28;5073324;28;20079;-56
2022/09/01 02:39:17;;;;;;;4.78;1.50;;;;;;;14.85;86.42;102005.53;5073894;28;20059;-55
2022/09/01 02:41:46;;;;;;;4.78;1.67;;;;;;;14.81;86.71;102006.69;5073052;28;20392;-58
2022/09/01 02:44:14;;;;;;;5.07;1.77;;;;;;;14.82;86.49;101999.56;5073078;28;20117;-55
2022/09/01 02:46:45;;;;;;;4.78;1.88;;;;;;;14.82;86.03;102010.16;5071613;28;20056;-57
2022/09/01 02:49:18;;;;;;;4.05;1.58;;;;;;;14.85;85.72;102004.69;5072754;28;20079;-57
2022/09/01 02:51:51;;;;;;;3.60;1.60;;;;;;;14.83;85.48;102003.94;5073101;28;20503;-60
2022/09/01 02:54:21;;;;;;;5.63;1.88;;;;;;;14.81;85.53;102005.84;5072919;28;20119;-56
2022/09/01 02:56:53;;;;;;;3.95;1.60;;;;;;;14.87;85.80;102002.78;5071960;28;20044;-60
2022/09/01 02:59:25;;;;;;;4.03;1.73;;;;;;;14.80;85.75;102007.63;5072855;28;20040;-59
2022/09/01 03:01:56;;;;;;;8.02;2.13;;;;;;;14.76;85.90;102005.28;5072925;28;20052;-60
2022/09/01 03:04:25;;;;;;;5.32;1.95;;;;;;;14.81;85.34;101998.75;5073168;28;20060;-60
2022/09/01 03:06:57;;;;;;;3.60;1.67;;;;;;;14.75;85.69;101998.28;5073139;28;20123;-59
2022/09/01 03:09:26;;;;;;;4.18;2.00;;;;;;;14.76;85.56;101992.88;5072708;28;20055;-56
2022/09/01 03:11:55;;;;;;;4.60;1.60;;;;;;;14.73;85.51;102000.19;5072817;28;20044;-59
2022/09/01 03:14:23;;;;;;;4.60;1.70;;;;;;;14.68;84.99;101998.69;5072457;28;20526;-59
2022/09/01 03:16:52;;;;;;;2.83;1.50;;;;;;;14.66;85.57;101995.28;5072238;28;20044;-55
2022/09/01 03:19:21;;;;;;;6.22;1.75;;;;;;;14.63;85.47;102000.78;5071298;28;20072;-59
2022/09/01 03:21:49;;;;;;;3.40;1.55;;;;;;;14.56;86.13;102011.81;5072698;28;20051;-59
2022/09/01 03:24:18;;;;;;;5.20;1.75;;;;;;;14.57;85.84;102005.59;5072398;28;20083;-57
2022/09/01 03:26:48;;;;;;;3.83;1.40;;;;;;;14.60;85.58;102005.38;5072318;28;20052;-57
2022/09/01 03:29:18;;;;;;;3.08;1.77;;;;;;;14.56;85.76;101999.44;5072141;28;20048;-58
2022/09/01 03:31:47;;;;;;;3.67;1.50;;;;;;;14.55;85.72;102005.69;5072171;28;20098;-59
2022/09/01 03:34:20;;;;;;;4.68;1.50;;;;;;;14.59;85.23;101999.25;5071736;28;20049;-59
2022/09/01 03:36:50;;;;;;;3.35;1.65;;;;;;;14.60;85.62;102008.03;5072196;28;20048;-59
2022/09/01 03:39:19;;;;;;;4.82;1.70;;;;;;;14.60;85.26;102000.09;5071983;28;20053;-58
2022/09/01 03:41:48;;;;;;;5.25;1.73;;;;;;;14.54;85.70;102006.63;5072259;28;20063;-59
2022/09/01 03:44:17;;;;;;;3.00;1.75;;;;;;;14.53;85.55;102011.09;5072331;28;20052;-60
2022/09/01 03:46:45;;;;;;;4.75;1.80;;;;;;;14.44;85.79;102011.66;5072211;28;20135;-60
2022/09/01 03:49:15;;;;;;;4.03;1.45;;;;;;;14.45;85.64;102009.84;5071950;28;20045;-55
2022/09/01 03:51:44;;;;;;;6.40;1.90;;;;;;;14.45;85.49;102004.56;5072117;28;20032;-57
2022/09/01 03:54:14;;;;;;;5.10;1.85;;;;;;;14.42;86.30;102005.59;5072038;28;20127;-59
2022/09/01 03:56:42;;;;;;;4.80;1.80;;;;;;;14.39;85.69;102007.59;5072505;28;20052;-56
2022/09/01 03:59:15;;;;;;;4.82;1.65;;;;;;;14.33;86.12;102004.41;5070746;28;20393;-54
2022/09/01 04:01:45;;;;;;;3.95;1.60;;;;;;;14.38;85.58;101996.16;5072174;28;20048;-57
2022/09/01 04:04:14;;;;;;;4.32;2.00;;;;;;;14.35;85.74;101993.72;5072015;28;20041;-57
2022/09/01 04:06:43;;;;;;;5.53;1.88;;;;;;;14.35;85.57;101991.06;5072171;28;20064;-56
2022/09/01 04:09:12;;;;;;;4.47;1.73;;;;;;;14.37;85.19;101991.81;5076129;28;20066;-59
2022/09/01 04:11:44;;;;;;;3.08;1.80;;;;;;;14.36;85.35;101993.59;5076630;28;20052;-58
2022/09/01 04:14:14;;;;;;;5.47;1.73;;;;;;;14.33;85.09;101993.81;5076030;28;20515;-60
2022/09/01 04:19:29;;;;;;;3.60;1.70;;;;;;;14.22;85.41;101992.78;5074599;28;20053;-60
2022/09/01 04:22:00;;;;;;;5.47;1.90;;;;;;;14.24;85.26;101991.72;5075899;28;20041;-58
2022/09/01 04:24:31;;;;;;;4.45;2.10;;;;;;;14.27;84.25;101996.81;5074610;28;20058;-56
2022/09/01 04:27:02;;;;;;;5.82;1.98;;;;;;;14.26;84.75;101989.84;5075626;28;20340;-56
2022/09/01 04:29:32;;;;;;;5.65;1.90;;;;;;;14.22;85.65;101992.78;5076049;28;20049;-60
2022/09/01 04:32:04;;;;;;;3.15;1.65;;;;;;;14.27;84.61;101996.81;5075697;28;20052;-58
2022/09/01 04:34:37;;;;;;;3.78;1.70;;;;;;;14.29;84.38;101996.72;5075567;28;20040;-59
2022/09/01 04:37:08;;;;;;;4.03;1.92;;;;;;;14.24;85.27;101986.44;5075405;28;20048;-57
2022/09/01 04:39:37;;;;;;;3.85;1.60;;;;;;;14.23;84.22;101984.72;5075234;28;20049;-55
2022/09/01 04:42:09;;;;;;;5.28;1.77;;;;;;;14.21;84.20;101984.00;5074086;28;20064;-56
2022/09/01 04:44:38;;;;;;;4.70;1.90;;;;;;;14.15;84.47;101994.94;5075313;28;20052;-57
2022/09/01 04:47:10;;;;;;;3.97;1.90;;;;;;;14.15;84.07;101989.66;5075294;28;20059;-59
2022/09/01 04:49:38;;;;;;;7.53;2.03;;;;;;;14.14;84.71;101993.28;5075390;28;20071;-57
2022/09/01 04:52:06;;;;;;;6.57;1.60;;;;;;;14.13;84.54;101999.50;5075413;28;20048;-55
2022/09/01 04:54:36;;;;;;;7.07;2.05;;;;;;;14.11;84.59;101996.94;5074977;28;20056;-57
2022/09/01 04:57:05;;;;;;;4.55;1.77;;;;;;;14.13;84.46;101996.84;5075232;28;20111;-55
2022/09/01 04:59:36;;;;;;;4.68;1.70;;;;;;;14.12;84.08;101995.16;5075411;28;20044;-59
2022/09/01 05:02:08;;;;;;;3.45;1.88;;;;;;;14.13;83.94;101994.22;5075377;28;20048;-59
2022/09/01 05:04:43;;;;;;;3.95;1.80;;;;;;;14.11;83.97;101991.66;5075144;28;20045;-55
2022/09/01 05:07:13;;;;;;;3.80;1.63;;;;;;;14.09;83.87;101993.53;5073941;28;20082;-58
2022/09/01 05:09:41;;;;;;;3.70;1.70;;;;;;;14.05;83.10;101999.97;5075175;28;20449;-58
2022/09/01 05:12:15;;;;;;;4.50;2.03;;;;;;;13.97;83.61;101996.94;5074052;28;20071;-58
2022/09/01 05:14:47;;;;;;;4.45;1.88;;;;;;;14.00;84.11;102000.25;5075077;28;20044;-55
2022/09/01 05:17:16;;;;;;;5.68;1.90;;;;;;;14.00;83.98;102000.25;5075509;28;20113;-56
2022/09/01 05:19:47;;;;;;;4.85;1.90;;;;;;;13.97;84.45;101999.59;5074413;28;20044;-59
2022/09/01 05:22:20;;;;;;;6.75;2.05;;;;;;;13.99;84.83;101998.53;5076070;28;20048;-58
2022/09/01 05:24:51;;;;;;;4.00;1.80;;;;;;;14.01;84.58;102003.75;5074599;28;20094;-62
2022/09/01 05:27:22;;;;;;;5.25;2.00;;;;;;;13.94;85.25;102008.56;5073545;28;20052;-56
2022/09/01 05:29:53;;;;;;;6.90;1.98;;;;;;;13.96;85.31;102016.38;5074858;28;20491;-60
2022/09/01 05:32:24;;;;;;;6.35;2.00;;;;;;;13.97;84.88;102021.56;5074491;28;20057;-55
2022/09/01 05:34:53;;;;;;;4.23;1.70;;;;;;;13.89;85.32;102010.63;5074722;28;20048;-59
2022/09/01 05:37:21;;;;;;;5.50;1.98;;;;;;;13.91;85.16;102021.13;5074357;28;20128;-55
2022/09/01 05:39:51;;;;;;;5.60;1.75;;;;;;;13.91;84.97;102016.69;5073108;28;20041;-60
2022/09/01 05:42:20;;;;;;;9.15;1.95;;;;;;;13.90;85.01;102022.91;5074141;28;20053;-59
2022/09/01 05:44:49;;;;;;;5.22;1.95;;;;;;;13.90;85.27;102009.69;5074469;28;20056;-56
2022/09/01 05:47:22;;;;;;;5.72;2.13;;;;;;;13.91;85.49;102016.69;5074300;28;20549;-58
2022/09/01 05:49:52;;;;;;;7.53;2.13;;;;;;;13.92;83.78;102018.38;5074275;28;20040;-54
2022/09/01 05:52:24;;;;;;;4.57;1.85;;;;;;;13.94;83.11;102018.28;5074218;28;20048;-58
2022/09/01 05:54:54;;;;;;;7.07;2.08;;;;;;;13.95;83.21;102017.34;5074108;28;20155;-56
2022/09/01 05:57:23;;;;;;;5.85;2.22;;;;;;;13.99;83.28;102025.00;5074257;28;20139;-59
2022/09/01 06:00:09;;;;;;;8.80;2.13;;;;;;;13.95;83.54;102018.19;5073886;28;20052;-59
2022/09/01 06:02:41;;;;;;;10.55;2.55;;;;;;;14.01;83.72;102020.44;5073999;28;20139;-55
2022/09/01 06:05:10;;;;;;;8.90;2.17;;;;;;;14.03;83.37;102023.88;5073752;28;20044;-54
2022/09/01 06:07:39;;;;;;;5.13;1.85;;;;;;;14.10;82.82;102018.22;5073796;28;20036;-56
2022/09/01 06:10:08;;;;;;;6.30;1.95;;;;;;;14.07;82.14;102024.53;5073652;28;20443;-59
2022/09/01 06:12:37;;;;;;;7.32;2.00;;;;;;;14.05;83.15;102030.88;5073920;28;20048;-58
2022/09/01 06:15:14;;;;;;;5.22;1.80;;;;;;;14.07;81.73;102034.25;5073619;28;20109;-56
2022/09/01 06:17:45;;;;;;;4.38;1.90;;;;;;;14.05;81.52;102029.06;5073479;28;20633;-59
2022/09/01 06:20:17;;;;;;;7.00;2.20;;;;;;;14.09;81.74;102033.22;5073681;28;20409;-56
2022/09/01 06:22:46;;;;;;;7.45;2.20;;;;;;;14.17;81.02;102032.75;5073520;28;20051;-59
2022/09/01 06:25:16;;;;;;;7.40;2.10;;;;;;;14.28;80.85;102027.63;5073482;28;20048;-59
2022/09/01 06:27:46;;;;;;;5.50;1.95;;;;;;;14.36;80.11;102030.66;5073647;28;20076;-58
2022/09/01 06:30:19;;;;;;;6.47;2.10;;;;;;;14.50;78.58;102031.59;5073019;28;20388;-59
2022/09/01 06:32:53;;;;;;;5.50;1.92;;;;;;;14.63;78.42;102032.56;5073641;28;20059;-60
2022/09/01 06:35:23;;;;;;;4.47;2.03;;;;;;;14.66;77.49;102021.75;5073142;28;20040;-56
2022/09/01 06:37:52;;;;;;;6.82;2.10;;;;;;;14.69;77.04;102032.16;5072727;28;20051;-57
2022/09/01 06:40:20;;;;;;;5.50;2.10;;;;;;;14.73;76.86;102037.28;5071455;28;20041;-56
2022/09/01 06:42:51;;;;;;;7.03;2.15;;;;;;;14.79;77.83;102032.44;5072905;28;20060;-60
2022/09/01 06:45:22;;;;;;;8.70;2.25;;;;;;;14.93;76.93;102036.84;5072763;28;20040;-57
2022/09/01 06:47:52;;;;;;;8.65;2.20;;;;;;;15.00;76.58;102037.28;5105318;28;20365;-55
2022/09/01 06:50:28;;;;;;;6.72;2.20;;;;;;;15.13;76.24;102039.97;5072528;28;20123;-58
2022/09/01 06:53:17;;;;;;;6.53;2.75;;;;;;;15.33;76.32;102039.50;5072613;28;20044;-57
2022/09/01 06:56:02;;;;;;;8.52;2.70;;;;;;;15.51;74.94;102039.22;5071346;28;20135;-56
2022/09/01 06:58:31;;;;;;;10.25;2.55;;;;;;;15.64;73.33;102040.09;5072806;28;20076;-58
2022/09/01 07:00:59;;;;;;;4.82;2.00;;;;;;;15.83;73.61;102044.19;5072743;28;20060;-56
2022/09/01 07:03:30;;;;;;;6.45;2.55;;;;;;;16.02;73.90;102033.13;5072799;28;20044;-56
2022/09/01 07:05:59;;;;;;;6.95;2.10;;;;;;;16.18;71.72;102040.88;5072679;28;20052;-58
2022/09/01 07:08:32;;;;;;;7.63;2.20;;;;;;;16.28;71.61;102041.94;5104880;28;20161;-58
2022/09/01 07:11:26;;;;;;;5.38;1.77;;;;;;;16.28;70.21;102044.59;5072100;28;20044;-57
2022/09/01 07:14:15;;;;;;;7.55;2.33;;;;;;;16.51;69.89;102045.63;5070681;28;20151;-57
2022/09/01 07:16:45;;;;;;;8.77;2.50;;;;;;;16.67;69.35;102048.00;5071963;28;20036;-58
2022/09/01 07:19:36;;;;;;;6.70;2.50;;;;;;;16.88;69.06;102050.94;5072019;28;20049;-60
2022/09/01 07:22:20;;;;;;;7.63;2.70;;;;;;;17.11;67.40;102050.22;5072230;28;20102;-59
2022/09/01 07:25:11;;;;;;;8.43;2.80;;;;;;;17.24;66.82;102048.34;5104535;28;20491;-60
2022/09/01 07:27:48;;;;;;;5.72;2.30;;;;;;;17.37;66.06;102048.31;5071872;28;20441;-60
2022/09/01 07:30:19;;;;;;;8.15;1.98;;;;;;;17.47;66.34;102045.78;5071634;28;20059;-60
2022/09/01 07:32:51;;;;;;;6.70;2.13;;;;;;;17.53;65.62;102045.31;5070758;28;20056;-58
2022/09/01 07:35:22;;;;;;;4.97;2.08;;;;;;;17.71;64.74;102040.38;5071856;28;20051;-58
2022/09/01 07:37:52;;;;;;;6.50;2.28;;;;;;;18.03;63.77;102045.09;5070608;28;20044;-58
2022/09/01 07:40:42;;;;;;;5.60;2.03;;;;;;;18.28;62.99;102049.31;5071948;28;20059;-58
2022/09/01 07:43:32;;;;;;;7.07;2.17;;;;;;;18.39;62.21;102046.66;5070640;28;20052;-58
2022/09/01 07:46:04;;;;;;;5.43;1.90;;;;;;;18.45;61.34;102050.66;5069987;28;20043;-61
2022/09/01 07:48:54;;;;;;;7.50;2.45;;;;;;;18.81;61.37;102055.81;5071807;28;20048;-59
2022/09/01 07:51:44;;;;;;;5.93;2.00;;;;;;;18.90;59.94;102049.75;5072075;28;20040;-58
2022/09/01 07:54:12;;;;;;;4.60;1.90;;;;;;;19.09;58.61;102047.25;5071910;28;20096;-59
2022/09/01 07:56:41;;;;;;;8.40;2.10;;;;;;;19.23;57.53;102056.78;5071851;28;20040;-58
2022/09/01 07:59:09;;;;;;;5.20;1.90;;;;;;;19.47;58.19;102045.06;5072101;28;20503;-61
2022/09/01 08:01:42;;;;;;;6.18;2.00;;;;;;;19.71;57.28;102039.44;5071949;28;20044;-60
2022/09/01 08:04:11;;;;;;;6.38;1.90;;;;;;;19.97;56.34;102044.38;5072022;28;20135;-60
2022/09/01 08:06:40;;;;;;;6.00;2.00;;;;;;;20.08;56.50;102036.31;5071958;28;20128;-58
2022/09/01 08:09:10;;;;;;;7.80;1.70;;;;;;;20.31;56.78;102038.78;5071867;28;20041;-60
2022/09/01 08:11:58;;;;;;;4.85;1.65;;;;;;;20.41;55.09;102042.34;5072052;28;20135;-58
2022/09/01 08:14:30;;;;;;;4.85;1.70;;;;;;;20.58;53.51;102037.31;5104236;28;20109;-59
2022/09/01 08:17:01;;;;;;;5.05;1.60;;;;;;;20.88;54.21;102033.75;5071657;28;20377;-59
2022/09/01 08:19:45;;;;;;;5.57;1.35;;;;;;;21.10;51.68;102038.00;5071695;28;20037;-59
2022/09/01 08:22:14;;;;;;;3.85;1.60;;;;;;;21.30;50.68;102043.34;5071459;28;20093;-61
2022/09/01 08:24:44;;;;;;;6.03;1.73;;;;;;;21.45;51.02;102041.91;5070551;28;20044;-62
2022/09/01 08:27:12;;;;;;;5.65;1.42;;;;;;;21.63;49.32;102043.06;5070567;28;20135;-59
2022/09/01 08:29:41;;;;;;;4.63;1.58;;;;;;;21.66;48.67;102040.91;5071751;28;20495;-59
2022/09/01 08:32:10;;;;;;;6.50;1.50;;;;;;;21.91;48.86;102041.25;5071704;28;20050;-59
2022/09/01 08:34:38;;;;;;;3.63;1.50;;;;;;;22.18;47.80;102043.13;5071678;28;20438;-58
2022/09/01 08:37:06;;;;;;;4.90;1.40;;;;;;;22.35;47.40;102044.25;5071668;28;20045;-60
2022/09/01 08:39:34;;;;;;;4.22;1.35;;;;;;;22.37;46.52;102042.22;5071657;28;20086;-61
2022/09/01 08:42:11;;;;;;;8.52;1.75;;;;;;;22.59;46.44;102035.66;5071278;28;20068;-60
2022/09/01 08:44:44;;;;;;;4.03;1.30;;;;;;;22.76;45.80;102042.00;5071382;28;20048;-59
2022/09/01 08:47:18;;;;;;;7.95;1.50;;;;;;;22.90;44.98;102040.63;5071366;28;20131;-61
2022/09/01 08:49:59;;;;;;;7.28;1.30;;;;;;;22.85;44.58;102039.41;5071162;28;20052;-60
2022/09/01 08:52:32;;;;;;;5.35;1.30;;;;;;;23.06;44.16;102037.28;5071153;28;20442;-60
2022/09/01 08:55:05;;;;;;;4.78;1.48;;;;;;;23.26;43.31;102038.00;5074912;28;20059;-60
2022/09/01 08:57:38;;;;;;;4.03;1.23;;;;;;;23.53;43.92;102033.50;5075189;28;20047;-60
2022/09/01 09:00:09;;;;;;;2.42;1.10;;;;;;;23.62;42.42;102027.19;5075600;28;20053;-60
2022/09/01 09:02:48;;;;;;;7.78;1.33;;;;;;;23.85;41.55;102025.81;5074950;28;20044;-60
2022/09/01 09:05:30;;;;;;;3.10;1.20;;;;;;;23.87;40.36;102016.56;5075291;28;20044;-59
2022/09/01 09:08:23;;;;;;;2.45;1.10;;;;;;;23.87;41.20;102013.91;5075091;28;20059;-60
2022/09/01 09:11:00;;;;;;;3.05;1.10;;;;;;;24.16;40.70;102012.75;5074931;28;20453;-62
2022/09/01 09:13:42;;;;;;;4.10;1.20;;;;;;;24.18;39.55;102016.09;5074930;28;20051;-61
2022/09/01 09:16:15;;;;;;;4.13;1.05;;;;;;;24.26;39.05;102012.59;5074867;28;20117;-62
2022/09/01 09:18:51;;;;;;;5.28;1.10;;;;;;;24.39;38.33;102001.38;5074606;28;20036;-61
2022/09/01 09:21:29;;;;;;;3.20;1.10;;;;;;;24.47;37.57;102004.94;5074503;28;20115;-60
2022/09/01 09:24:04;;;;;;;3.17;1.02;;;;;;;24.74;37.91;102010.25;5074629;28;20052;-60
2022/09/01 09:26:32;;;;;;;4.57;1.10;;;;;;;24.90;37.00;101988.75;5074522;28;20044;-61
2022/09/01 09:29:19;;;;;;;4.10;0.98;;;;;;;25.01;36.97;101994.81;5074678;28;20361;-61
2022/09/01 09:31:49;;;;;;;3.03;1.13;;;;;;;25.29;35.98;101988.06;5073235;28;20596;-61
2022/09/01 09:34:32;;;;;;;3.47;0.90;;;;;;;25.41;35.31;101996.63;5073241;28;20099;-60
2022/09/01 09:37:19;;;;;;;3.75;0.90;;;;;;;25.60;34.64;101987.34;5074479;28;20063;-61
2022/09/01 09:40:03;;;;;;;2.72;0.90;;;;;;;25.61;34.05;101980.97;5074251;28;20125;-61
2022/09/01 09:42:32;;;;;;;2.67;0.80;;;;;;;25.73;34.25;101978.75;5074216;28;20143;-61
2022/09/01 09:45:13;;;;;;;3.13;0.83;;;;;;;25.93;32.41;101975.63;5074338;28;20411;-60
2022/09/01 09:47:45;;;;;;;4.50;0.95;;;;;;;26.03;32.89;101981.69;5074316;28;20044;-60
2022/09/01 09:50:24;;;;;;;2.70;1.00;;;;;;;26.01;33.24;101983.69;5074394;28;20128;-61
2022/09/01 09:53:09;;;;;;;2.25;0.93;;;;;;;26.17;32.41;101968.50;5074049;28;20827;-60
2022/09/01 09:55:53;;;;;;;3.00;1.00;;;;;;;26.19;31.36;101967.31;5073997;28;20063;-60
2022/09/01 09:58:26;;;;;;;2.80;0.90;;;;;;;26.38;30.99;101963.34;5073846;28;20033;-60
2022/09/01 10:01:05;;;;;;;2.80;0.80;;;;;;;26.42;30.16;101975.44;5073818;28;20087;-61
2022/09/01 10:03:37;;;;;;;2.05;0.73;;;;;;;26.47;30.91;101966.81;5074296;28;20053;-60
2022/09/01 10:06:12;;;;;;;1.77;0.90;;;;;;;26.68;30.39;101968.81;5073073;28;20044;-61
2022/09/01 10:08:43;;;;;;;;;;;;;;;26.81;29.73;101955.63;5074414;28;20044;-61
2022/09/01 10:11:26;;;;;;;2.45;0.77;;;;;;;26.96;29.95;101963.75;5073800;28;19932;-60
2022/09/01 10:14:05;;;;;;;1.67;0.80;;;;;;;27.11;29.83;101961.09;5073713;28;20052;-60
2022/09/01 10:16:37;;;;;;;3.10;0.90;;;;;;;27.15;28.67;101954.31;5073617;28;20040;-59
2022/09/01 10:19:11;;;;;;;2.78;0.73;;;;;;;27.40;29.17;101953.25;5073896;28;20048;-60
2022/09/01 10:21:43;;;;;;;5.70;1.00;;;;;;;27.41;28.67;101961.16;5072134;28;20084;-61
2022/09/01 10:24:24;;;;;;;2.10;0.75;;;;;;;27.54;28.84;101952.44;5073721;28;20056;-61
2022/09/01 10:27:00;;;;;;;3.45;0.80;;;;;;;27.63;29.93;101942.38;5073719;28;20048;-61
2022/09/01 10:29:34;;;;;;;4.43;0.70;;;;;;;27.48;29.00;101945.88;5073769;28;20045;-62
2022/09/01 10:32:21;;;;;;;3.13;1.02;;;;;;;27.57;28.65;101948.50;5073573;28;20149;-62
2022/09/01 10:35:04;;;;;;;3.45;0.77;;;;;;;27.68;27.99;101956.16;5073945;28;20131;-61
2022/09/01 10:37:34;;;;;;;1.67;0.82;;;;;;;27.90;28.39;101948.13;5073371;28;20404;-62
2022/09/01 10:40:20;;;;;;;2.53;0.70;;;;;;;28.00;27.35;101937.88;5074019;28;20076;-61
2022/09/01 10:43:00;;;;;;;2.13;0.73;;;;;;;27.96;26.53;101942.81;5073314;28;20056;-63
2022/09/01 10:45:34;;;;;;;2.05;0.80;;;;;;;28.00;26.84;101935.16;5072948;28;20054;-61
2022/09/01 10:48:31;;;;;;;3.25;0.70;;;;;;;28.22;27.84;101937.91;5073452;28;20403;-61
2022/09/01 10:51:43;;;;;;;2.42;0.70;;;;;;;28.19;27.18;101935.59;5073184;28;20408;-61
2022/09/01 10:54:52;;;;;;;1.65;0.68;;;;;;;28.46;27.76;101926.72;5073046;28;20268;-61
2022/09/01 10:57:44;;;;;;;3.20;0.88;;;;;;;28.47;27.70;101933.81;5073133;28;20072;-62
2022/09/01 11:00:57;;;;;;;5.15;0.80;;;;;;;28.87;26.43;101925.25;5071852;28;20052;-62
2022/09/01 11:03:56;;;;;;;1.02;0.73;;;;;;;28.62;26.63;101922.94;5072683;28;20511;-61
2022/09/01 11:07:07;;;;;;;2.70;1.00;;;;;;;28.66;27.37;101920.72;5071070;28;20098;-61
2022/09/01 11:09:41;;;;;;;2.13;0.90;;;;;;;28.76;27.08;101923.06;5072780;28;20557;-61
2022/09/01 11:12:25;;;;;;;1.58;0.90;;;;;;;28.62;27.18;101919.41;5072962;28;20048;-61
2022/09/01 11:15:00;;;;;;;1.60;0.80;;;;;;;28.88;26.70;101923.38;5072883;28;20127;-61
2022/09/01 11:17:31;;;;;;;4.17;1.00;;;;;;;29.10;26.48;101925.00;5071778;28;20048;-61
2022/09/01 11:20:08;;;;;;;1.25;0.75;;;;;;;29.14;26.34;101922.75;5072178;28;20048;-63
2022/09/01 11:22:41;;;;;;;4.50;0.90;;;;;;;29.17;26.75;101912.34;5071356;28;20072;-62
2022/09/01 11:25:27;;;;;;;;;;;;;;;29.21;26.60;101920.09;5073101;28;20049;-61
2022/09/01 11:28:35;;;;;;;2.97;0.85;;;;;;;29.09;26.21;101915.19;5072550;28;19920;-61
2022/09/01 11:31:20;;;;;;;3.35;0.93;;;;;;;29.28;26.08;101905.56;5072494;28;20408;-61
2022/09/01 11:34:11;;;;;;;2.95;0.82;;;;;;;29.32;25.92;101916.84;5072175;28;20052;-61
2022/09/01 11:36:55;;;;;;;0.77;0.70;;;;;;;29.60;25.73;101910.53;5072347;28;20052;-62
2022/09/01 11:39:42;;;;;;;4.00;0.95;;;;;;;29.27;25.44;101903.06;5072291;28;20051;-63
2022/09/01 11:42:17;;;;;;;5.47;1.17;;;;;;;29.70;26.66;101908.28;5072262;28;20082;-61
2022/09/01 11:44:51;;;;;;;2.25;0.95;;;;;;;29.88;25.12;101902.31;5072306;28;20102;-64
2022/09/01 11:47:24;;;;;;;4.18;0.98;;;;;;;30.05;25.30;101902.81;5072527;28;20510;-62
2022/09/01 11:49:55;;;;;;;1.77;0.80;;;;;;;30.16;24.55;101901.38;5071020;28;20053;-62
2022/09/01 11:52:27;;;;;;;2.03;1.02;;;;;;;30.18;25.51;101897.41;5072229;28;20054;-61
2022/09/01 11:54:59;;;;;;;3.47;1.13;;;;;;;30.32;24.68;101897.41;5072213;28;20052;-60
2022/09/01 11:57:30;;;;;;;4.80;1.08;;;;;;;30.20;24.37;101889.06;5071827;28;20040;-61
2022/09/01 12:00:00;;;;;;;7.35;1.15;;;;;;;29.67;25.25;101887.00;5072121;28;20075;-63
2022/09/01 12:02:32;;;;;;;3.80;0.90;;;;;;;30.29;25.59;101884.28;5071993;28;20508;-62